Time;durP1;ratioP1;P1;durP2;ratioP2;P2;SDS_P1;SDS_P2;PMS_P1;PMS_P2;Temp;Humidity;BMP_temperature;BMP_pressure;BME280_temperature;BME280_humidity;BME280_pressure;Samples;Min_cycle;Max_cycle;Signal;HPM_P1;HPM_P2
2021/08/07 00:01:30;;;;;;;15.87;8.20;;;;;;;;;;5102334;28;20482;-56
2021/08/07 00:03:58;;;;;;;10.80;6.20;;;;;;;;;;5115835;28;20457;-55
2021/08/07 00:06:25;;;;;;;7.20;1.97;;;;;;;;;;5115144;28;20446;-55
2021/08/07 00:08:53;;;;;;;14.87;10.37;;;;;;;;;;5115552;28;20447;-56
2021/08/07 00:11:27;;;;;;;12.00;5.50;;;;;;;;;;5106182;28;20481;-55
2021/08/07 00:13:54;;;;;;;36.20;22.67;;;;;;;;;;5094409;28;20450;-52
2021/08/07 00:16:21;;;;;;;29.17;13.90;;;;;;;;;;5095359;28;20524;-54
2021/08/07 00:18:51;;;;;;;18.17;13.73;;;;;;;;;;5095465;28;20491;-52
2021/08/07 00:21:20;;;;;;;6.13;3.20;;;;;;;;;;5095368;28;20495;-53
2021/08/07 00:23:47;;;;;;;3.60;2.17;;;;;;;;;;5096096;28;20883;-55
2021/08/07 00:26:16;;;;;;;5.20;2.50;;;;;;;;;;5095246;28;20478;-52
2021/08/07 00:28:43;;;;;;;4.77;3.40;;;;;;;;;;5095697;28;20455;-55
2021/08/07 00:31:10;;;;;;;6.60;2.97;;;;;;;;;;5095423;28;20481;-50
2021/08/07 00:33:38;;;;;;;6.30;2.67;;;;;;;;;;5094336;28;20464;-56
2021/08/07 00:36:05;;;;;;;5.97;2.00;;;;;;;;;;5095512;28;20779;-53
2021/08/07 00:38:39;;;;;;;5.43;1.90;;;;;;;;;;5094804;28;20738;-53
2021/08/07 00:41:06;;;;;;;5.20;2.87;;;;;;;;;;5115616;28;20475;-55
2021/08/07 00:43:34;;;;;;;6.87;2.63;;;;;;;;;;5115289;28;20450;-54
2021/08/07 00:46:02;;;;;;;5.77;2.27;;;;;;;;;;5097425;28;20454;-55
2021/08/07 00:48:29;;;;;;;15.30;12.07;;;;;;;;;;5115502;28;20489;-57
2021/08/07 00:50:56;;;;;;;9.33;6.97;;;;;;;;;;5114126;28;20467;-55
2021/08/07 00:53:24;;;;;;;4.80;2.47;;;;;;;;;;5115908;28;20434;-55
2021/08/07 00:55:52;;;;;;;11.13;3.93;;;;;;;;;;5115711;28;20479;-56
2021/08/07 00:58:19;;;;;;;4.20;2.33;;;;;;;;;;5115686;28;20860;-52
2021/08/07 01:00:51;;;;;;;6.07;2.50;;;;;;;;;;5115270;28;20501;-55
2021/08/07 01:03:23;;;;;;;6.50;3.13;;;;;;;;;;5115109;28;20452;-53
2021/08/07 01:05:57;;;;;;;6.03;2.47;;;;;;;;;;5115026;28;20485;-52
2021/08/07 01:08:25;;;;;;;3.30;2.13;;;;;;;;;;5115250;28;20437;-57
2021/08/07 01:11:02;;;;;;;3.93;2.27;;;;;;;;;;5115743;28;20446;-53
2021/08/07 01:13:34;;;;;;;5.50;1.90;;;;;;;;;;5115034;28;20462;-55
2021/08/07 01:16:03;;;;;;;12.20;8.70;;;;;;;;;;5114995;28;20465;-55
2021/08/07 01:18:31;;;;;;;12.60;9.00;;;;;;;;;;5113359;28;20523;-55
2021/08/07 01:20:59;;;;;;;4.33;2.10;;;;;;;;;;5113858;28;20961;-53
2021/08/07 01:23:40;;;;;;;6.90;3.27;;;;;;;;;;5114448;28;20462;-52
2021/08/07 01:26:13;;;;;;;4.17;1.80;;;;;;;;;;5114529;28;20466;-50
2021/08/07 01:28:42;;;;;;;7.20;5.50;;;;;;;;;;5113400;28;20449;-52
2021/08/07 01:31:11;;;;;;;21.13;12.77;;;;;;;;;;5108966;28;20473;-55
2021/08/07 01:33:49;;;;;;;14.40;7.80;;;;;;;;;;5115036;28;20458;-52
2021/08/07 01:36:18;;;;;;;11.00;5.73;;;;;;;;;;5114600;28;20539;-54
2021/08/07 01:38:47;;;;;;;9.10;4.73;;;;;;;;;;5115524;28;20489;-55
2021/08/07 01:41:19;;;;;;;12.83;9.60;;;;;;;;;;5114882;28;20495;-54
2021/08/07 01:46:40;;;;;;;28.60;25.30;;;;;;;;;;5113702;28;20447;-54
2021/08/07 01:49:10;;;;;;;14.97;9.43;;;;;;;;;;5115230;28;20477;-56
2021/08/07 01:51:54;;;;;;;16.67;10.60;;;;;;;;;;5114529;28;20504;-51
2021/08/07 01:54:25;;;;;;;14.50;5.87;;;;;;;;;;5115296;28;20528;-55
2021/08/07 01:56:54;;;;;;;13.83;8.73;;;;;;;;;;5115116;28;20457;-54
2021/08/07 01:59:23;;;;;;;20.93;10.93;;;;;;;;;;5111830;28;20458;-51
2021/08/07 02:01:51;;;;;;;15.70;10.00;;;;;;;;;;5094322;28;20981;-49
2021/08/07 02:04:34;;;;;;;27.17;17.27;;;;;;;;;;5093481;28;20477;-52
2021/08/07 02:07:01;;;;;;;15.00;7.53;;;;;;;;;;5094712;28;20452;-55
2021/08/07 02:09:29;;;;;;;14.53;7.87;;;;;;;;;;5093881;28;20462;-51
2021/08/07 02:11:58;;;;;;;9.67;4.27;;;;;;;;;;5086563;28;20452;-53
2021/08/07 02:14:27;;;;;;;10.10;6.77;;;;;;;;;;5093973;28;20593;-52
2021/08/07 02:16:55;;;;;;;11.00;6.63;;;;;;;;;;5094616;28;20496;-52
2021/08/07 02:19:26;;;;;;;8.77;3.70;;;;;;;;;;5093966;28;20433;-50
2021/08/07 02:21:53;;;;;;;5.80;3.00;;;;;;;;;;5093399;28;20492;-52
2021/08/07 02:24:21;;;;;;;5.83;2.83;;;;;;;;;;5094213;28;20456;-50
2021/08/07 02:26:49;;;;;;;17.63;7.53;;;;;;;;;;5092825;28;20483;-51
2021/08/07 02:29:17;;;;;;;19.40;13.80;;;;;;;;;;5107706;28;20503;-53
2021/08/07 02:31:47;;;;;;;14.37;10.57;;;;;;;;;;5113100;28;20553;-52
2021/08/07 02:34:15;;;;;;;6.70;4.37;;;;;;;;;;5113408;28;20496;-51
2021/08/07 02:36:43;;;;;;;4.97;2.57;;;;;;;;;;5113128;28;20529;-53
2021/08/07 02:39:10;;;;;;;11.17;4.70;;;;;;;;;;5113979;28;20463;-52
2021/08/07 02:41:45;;;;;;;7.63;2.90;;;;;;;;;;5111197;28;20476;-49
2021/08/07 02:44:13;;;;;;;3.60;2.30;;;;;;;;;;5113897;28;20471;-49
2021/08/07 02:46:43;;;;;;;5.00;2.00;;;;;;;;;;5113807;28;20537;-54
2021/08/07 02:49:12;;;;;;;6.03;2.57;;;;;;;;;;5113426;28;20555;-52
2021/08/07 02:51:40;;;;;;;7.93;4.63;;;;;;;;;;5114256;28;20834;-54
2021/08/07 02:54:08;;;;;;;17.30;14.20;;;;;;;;;;5113352;28;20471;-53
2021/08/07 02:56:35;;;;;;;5.27;3.27;;;;;;;;;;5114172;28;20448;-49
2021/08/07 02:59:03;;;;;;;14.40;10.23;;;;;;;;;;5114216;28;20455;-54
2021/08/07 03:01:45;;;;;;;14.00;7.97;;;;;;;;;;5113995;28;20592;-53
2021/08/07 03:04:22;;;;;;;6.07;3.53;;;;;;;;;;5100757;28;20614;-54
2021/08/07 03:06:51;;;;;;;3.60;2.33;;;;;;;;;;5098334;28;20525;-53
2021/08/07 03:09:19;;;;;;;6.33;2.77;;;;;;;;;;5093861;28;20460;-55
2021/08/07 03:11:46;;;;;;;4.77;2.30;;;;;;;;;;5093898;28;20739;-52
2021/08/07 03:14:19;;;;;;;5.20;3.27;;;;;;;;;;5110842;28;20469;-51
2021/08/07 03:16:46;;;;;;;8.03;2.43;;;;;;;;;;5099139;28;20469;-51
2021/08/07 03:19:16;;;;;;;4.10;2.20;;;;;;;;;;5093030;28;20457;-51
2021/08/07 03:21:43;;;;;;;5.70;2.00;;;;;;;;;;5113809;28;20491;-48
2021/08/07 03:24:10;;;;;;;7.30;1.83;;;;;;;;;;5096204;28;20460;-49
2021/08/07 03:26:38;;;;;;;4.60;2.07;;;;;;;;;;5093440;28;20467;-50
2021/08/07 03:29:05;;;;;;;3.50;2.17;;;;;;;;;;5109145;28;20447;-50
2021/08/07 03:31:42;;;;;;;3.20;1.80;;;;;;;;;;5114388;28;20451;-49
2021/08/07 03:34:10;;;;;;;6.33;2.07;;;;;;;;;;5113511;28;20458;-53
2021/08/07 03:36:43;;;;;;;6.17;2.40;;;;;;;;;;5113327;28;20463;-54
2021/08/07 03:39:34;;;;;;;4.00;2.20;;;;;;;;;;5114951;28;20430;-54
2021/08/07 03:42:04;;;;;;;3.60;2.20;;;;;;;;;;5112437;28;20510;-55
2021/08/07 03:44:36;;;;;;;3.07;1.50;;;;;;;;;;5113941;28;20486;-54
2021/08/07 03:47:05;;;;;;;4.30;1.70;;;;;;;;;;5114351;28;20491;-54
2021/08/07 03:49:33;;;;;;;2.77;1.60;;;;;;;;;;5111878;28;20463;-51
2021/08/07 03:52:01;;;;;;;5.20;1.80;;;;;;;;;;5113392;28;20439;-54
2021/08/07 03:54:35;;;;;;;3.87;2.10;;;;;;;;;;5110874;28;20483;-52
2021/08/07 03:57:02;;;;;;;4.67;2.07;;;;;;;;;;5092242;28;20483;-51
2021/08/07 03:59:29;;;;;;;6.47;2.00;;;;;;;;;;5093280;28;20452;-51
2021/08/07 04:02:06;;;;;;;5.90;2.00;;;;;;;;;;5092509;28;20526;-51
2021/08/07 04:04:33;;;;;;;5.80;3.00;;;;;;;;;;5092125;28;20468;-53
2021/08/07 04:07:02;;;;;;;5.27;2.80;;;;;;;;;;5107175;28;20446;-50
2021/08/07 04:09:30;;;;;;;4.17;2.83;;;;;;;;;;5107529;28;20459;-50
2021/08/07 04:11:57;;;;;;;3.00;2.00;;;;;;;;;;5102378;28;20459;-54
2021/08/07 04:14:25;;;;;;;2.80;2.07;;;;;;;;;;5104531;28;20549;-50
2021/08/07 04:19:35;;;;;;;9.53;2.63;;;;;;;;;;5104758;28;20515;-52
2021/08/07 04:22:06;;;;;;;7.17;2.97;;;;;;;;;;5102905;28;20452;-54
2021/08/07 04:24:33;;;;;;;3.50;2.43;;;;;;;;;;5113396;28;20475;-53
2021/08/07 04:27:00;;;;;;;4.50;3.37;;;;;;;;;;5113950;28;20497;-52
2021/08/07 04:29:42;;;;;;;5.07;2.80;;;;;;;;;;5113057;28;20459;-52
2021/08/07 04:32:09;;;;;;;3.30;2.10;;;;;;;;;;5111174;28;20491;-52
2021/08/07 04:34:36;;;;;;;6.20;2.60;;;;;;;;;;5113183;28;20734;-53
2021/08/07 04:37:04;;;;;;;3.97;2.57;;;;;;;;;;5113124;28;20463;-51
2021/08/07 04:39:32;;;;;;;5.37;2.57;;;;;;;;;;5117935;28;20469;-51
2021/08/07 04:42:07;;;;;;;4.53;2.03;;;;;;;;;;5100635;28;20472;-52
2021/08/07 04:44:40;;;;;;;5.80;2.20;;;;;;;;;;5093233;28;20445;-52
2021/08/07 04:47:07;;;;;;;6.00;1.60;;;;;;;;;;5092939;28;20708;-53
2021/08/07 04:49:35;;;;;;;8.13;2.40;;;;;;;;;;5108321;28;20492;-52
2021/08/07 04:52:02;;;;;;;5.50;1.93;;;;;;;;;;5115884;28;20496;-53
2021/08/07 04:54:30;;;;;;;4.20;1.30;;;;;;;;;;5116555;28;20468;-56
2021/08/07 04:57:03;;;;;;;4.93;1.80;;;;;;;;;;5115968;28;20433;-54
2021/08/07 04:59:30;;;;;;;3.43;1.60;;;;;;;;;;5116653;28;20488;-53
2021/08/07 05:01:58;;;;;;;4.10;1.80;;;;;;;;;;5111763;28;20570;-49
2021/08/07 05:04:26;;;;;;;4.87;1.63;;;;;;;;;;5115827;28;20533;-51
2021/08/07 05:06:53;;;;;;;3.63;2.50;;;;;;;;;;5116387;28;20556;-53
2021/08/07 05:09:20;;;;;;;3.13;1.90;;;;;;;;;;5116789;28;20452;-50
2021/08/07 05:11:53;;;;;;;3.20;1.80;;;;;;;;;;5116035;28;20452;-56
2021/08/07 05:14:22;;;;;;;3.50;1.60;;;;;;;;;;5117052;28;20519;-54
2021/08/07 05:16:49;;;;;;;6.73;1.87;;;;;;;;;;5101701;28;20508;-52
2021/08/07 05:19:17;;;;;;;6.33;3.20;;;;;;;;;;5096200;28;20526;-52
2021/08/07 05:21:44;;;;;;;3.17;2.03;;;;;;;;;;5094957;28;20560;-54
2021/08/07 05:24:23;;;;;;;6.83;2.77;;;;;;;;;;5095746;28;20440;-51
2021/08/07 05:26:50;;;;;;;4.57;2.70;;;;;;;;;;5095951;28;20508;-54
2021/08/07 05:29:17;;;;;;;7.80;2.40;;;;;;;;;;5104172;28;20527;-53
2021/08/07 05:31:57;;;;;;;6.00;3.90;;;;;;;;;;5116145;28;20513;-52
2021/08/07 05:34:24;;;;;;;9.77;3.50;;;;;;;;;;5116143;28;20448;-53
2021/08/07 05:36:51;;;;;;;6.77;2.90;;;;;;;;;;5115035;28;20462;-55
2021/08/07 05:39:42;;;;;;;4.33;2.20;;;;;;;;;;5115856;28;20445;-54
2021/08/07 05:42:09;;;;;;;4.33;2.53;;;;;;;;;;5116197;28;20490;-54
2021/08/07 05:44:41;;;;;;;4.93;2.50;;;;;;;;;;5109348;28;20490;-54
2021/08/07 05:47:25;;;;;;;3.57;2.13;;;;;;;;;;5131578;28;20493;-55
2021/08/07 05:49:52;;;;;;;3.83;2.30;;;;;;;;;;5115745;27;20447;-52
2021/08/07 05:52:19;;;;;;;10.03;2.63;;;;;;;;;;5115788;28;20491;-52
2021/08/07 05:54:47;;;;;;;6.40;2.70;;;;;;;;;;5116120;28;20464;-56
2021/08/07 05:57:15;;;;;;;4.70;2.50;;;;;;;;;;5112967;28;20447;-49
2021/08/07 05:59:45;;;;;;;3.93;2.00;;;;;;;;;;5095062;28;20517;-52
2021/08/07 06:02:13;;;;;;;5.30;2.10;;;;;;;;;;5094589;28;20502;-55
2021/08/07 06:04:41;;;;;;;4.87;2.47;;;;;;;;;;5095107;28;20625;-55
2021/08/07 06:07:08;;;;;;;3.57;2.07;;;;;;;;;;5101056;28;20478;-50
2021/08/07 06:09:36;;;;;;;12.23;2.60;;;;;;;;;;5115544;28;20441;-55
2021/08/07 06:12:24;;;;;;;4.50;2.40;;;;;;;;;;5115495;28;20492;-56
2021/08/07 06:14:51;;;;;;;5.00;3.03;;;;;;;;;;5105886;28;20454;-55
2021/08/07 06:17:18;;;;;;;4.50;3.03;;;;;;;;;;5095074;28;20443;-56
2021/08/07 06:20:01;;;;;;;7.23;2.73;;;;;;;;;;5115224;28;20488;-54
2021/08/07 06:22:29;;;;;;;6.53;3.13;;;;;;;;;;5115464;28;20569;-54
2021/08/07 06:24:56;;;;;;;5.73;2.80;;;;;;;;;;5114725;28;20446;-55
2021/08/07 06:27:29;;;;;;;8.33;2.67;;;;;;;;;;5107032;28;20455;-55
2021/08/07 06:29:56;;;;;;;4.20;2.07;;;;;;;;;;5115048;28;20462;-53
2021/08/07 06:32:24;;;;;;;8.67;3.07;;;;;;;;;;5114167;28;20505;-54
2021/08/07 06:35:16;;;;;;;5.27;2.30;;;;;;;;;;5115310;28;20462;-55
2021/08/07 06:37:45;;;;;;;5.23;2.10;;;;;;;;;;5115486;28;20467;-56
2021/08/07 06:40:15;;;;;;;3.50;2.17;;;;;;;;;;5094650;28;20473;-55
2021/08/07 06:43:07;;;;;;;3.90;2.20;;;;;;;;;;5092082;28;20482;-55
2021/08/07 06:45:34;;;;;;;9.03;3.30;;;;;;;;;;5094123;28;20484;-52
2021/08/07 06:48:02;;;;;;;7.20;2.23;;;;;;;;;;5094291;28;20440;-55
2021/08/07 06:50:32;;;;;;;5.43;2.50;;;;;;;;;;5100864;28;20485;-53
2021/08/07 06:53:02;;;;;;;12.60;2.70;;;;;;;;;;5108270;28;20458;-57
2021/08/07 06:55:33;;;;;;;4.17;2.03;;;;;;;;;;5115283;28;20790;-55
2021/08/07 06:58:01;;;;;;;6.30;1.60;;;;;;;;;;5102251;28;20475;-57
2021/08/07 07:00:28;;;;;;;6.47;1.67;;;;;;;;;;5112924;28;20455;-56
2021/08/07 07:02:56;;;;;;;3.30;1.33;;;;;;;;;;5114942;28;20477;-56
2021/08/07 07:05:41;;;;;;;9.77;2.27;;;;;;;;;;5113792;28;20443;-51
2021/08/07 07:08:10;;;;;;;11.70;2.10;;;;;;;;;;5095308;28;20455;-59
2021/08/07 07:10:38;;;;;;;3.50;1.90;;;;;;;;;;5096537;28;21013;-53
2021/08/07 07:13:09;;;;;;;4.00;2.03;;;;;;;;;;5121022;28;20488;-53
2021/08/07 07:15:36;;;;;;;5.03;1.67;;;;;;;;;;5116549;28;20462;-52
2021/08/07 07:18:05;;;;;;;5.07;2.27;;;;;;;;;;5134549;28;20430;-53
2021/08/07 07:21:06;;;;;;;5.77;1.60;;;;;;;;;;5118254;28;20455;-54
2021/08/07 07:23:34;;;;;;;3.90;1.60;;;;;;;;;;5093499;28;20482;-56
2021/08/07 07:26:02;;;;;;;4.23;1.50;;;;;;;;;;5097651;28;21026;-53
2021/08/07 07:28:42;;;;;;;4.30;1.50;;;;;;;;;;5113873;28;20454;-54
2021/08/07 07:31:11;;;;;;;4.03;1.50;;;;;;;;;;5101634;28;20556;-55
2021/08/07 07:33:39;;;;;;;4.17;1.57;;;;;;;;;;5093287;28;20464;-52
2021/08/07 07:36:06;;;;;;;3.13;1.27;;;;;;;;;;5092952;28;20456;-53
2021/08/07 07:38:37;;;;;;;4.73;1.80;;;;;;;;;;5092543;28;20440;-54
2021/08/07 07:41:06;;;;;;;5.10;2.20;;;;;;;;;;5099054;28;20447;-54
2021/08/07 07:43:33;;;;;;;4.50;1.80;;;;;;;;;;5112514;28;20490;-57
2021/08/07 07:46:01;;;;;;;4.70;2.00;;;;;;;;;;5111689;28;20463;-55
2021/08/07 07:48:28;;;;;;;9.10;1.90;;;;;;;;;;5092941;28;20495;-52
2021/08/07 07:50:56;;;;;;;5.60;1.83;;;;;;;;;;5097952;28;20531;-57
2021/08/07 07:53:37;;;;;;;5.00;1.77;;;;;;;;;;5093184;28;20428;-58
2021/08/07 07:56:08;;;;;;;5.00;1.47;;;;;;;;;;5104339;28;20457;-56
2021/08/07 07:58:38;;;;;;;4.00;1.90;;;;;;;;;;5100055;28;20470;-56
2021/08/07 08:03:55;;;;;;;3.93;2.33;;;;;;;;;;5111329;28;20541;-56
2021/08/07 08:06:22;;;;;;;3.73;1.80;;;;;;;;;;5112768;28;20469;-54
2021/08/07 08:09:27;;;;;;;9.40;2.93;;;;;;;;;;5106597;28;20513;-55
2021/08/07 08:11:56;;;;;;;6.30;1.87;;;;;;;;;;5095293;28;20454;-52
2021/08/07 08:14:26;;;;;;;6.53;2.27;;;;;;;;;;5076668;28;20458;-57
2021/08/07 08:17:13;;;;;;;4.90;1.67;;;;;;;;;;5091920;28;20452;-55
2021/08/07 08:19:41;;;;;;;4.30;1.90;;;;;;;;;;5090571;28;20456;-53
2021/08/07 08:22:08;;;;;;;4.83;1.40;;;;;;;;;;5087037;28;20483;-52
2021/08/07 08:24:35;;;;;;;9.43;1.60;;;;;;;;;;5106123;28;20459;-49
2021/08/07 08:27:04;;;;;;;4.37;1.83;;;;;;;;;;5113815;28;20501;-53
2021/08/07 08:29:34;;;;;;;4.80;1.90;;;;;;;;;;5113987;28;20455;-53
2021/08/07 08:32:01;;;;;;;4.63;1.63;;;;;;;;;;5114146;28;20469;-57
2021/08/07 08:34:28;;;;;;;5.53;1.40;;;;;;;;;;5104341;28;20451;-55
2021/08/07 08:36:57;;;;;;;5.47;1.60;;;;;;;;;;5133509;28;20511;-57
2021/08/07 08:39:25;;;;;;;5.50;1.47;;;;;;;;;;5117088;28;20466;-56
2021/08/07 08:41:57;;;;;;;5.10;1.53;;;;;;;;;;5114932;28;20435;-58
2021/08/07 08:44:28;;;;;;;5.87;2.97;;;;;;;;;;5095005;28;20476;-55
2021/08/07 08:46:55;;;;;;;8.70;1.70;;;;;;;;;;5095720;28;20511;-57
2021/08/07 08:49:22;;;;;;;5.23;1.67;;;;;;;;;;5095079;28;20497;-56
2021/08/07 08:52:07;;;;;;;4.10;2.00;;;;;;;;;;5097870;28;20454;-58
2021/08/07 08:54:37;;;;;;;5.53;2.27;;;;;;;;;;5094323;28;20917;-56
2021/08/07 08:57:05;;;;;;;11.93;2.20;;;;;;;;;;5096110;28;20524;-56
2021/08/07 08:59:38;;;;;;;7.83;1.80;;;;;;;;;;5131147;28;20439;-56
2021/08/07 09:02:05;;;;;;;5.80;2.00;;;;;;;;;;5104142;28;20487;-57
2021/08/07 09:04:33;;;;;;;4.40;1.90;;;;;;;;;;5104918;28;20489;-56
2021/08/07 09:07:15;;;;;;;4.27;1.77;;;;;;;;;;5116481;28;20463;-54
2021/08/07 09:09:43;;;;;;;6.37;1.87;;;;;;;;;;5115087;28;20451;-56
2021/08/07 09:12:11;;;;;;;6.47;1.70;;;;;;;;;;5112904;28;20492;-55
2021/08/07 09:14:53;;;;;;;6.47;1.80;;;;;;;;;;5113226;28;20597;-54
2021/08/07 09:17:39;;;;;;;8.53;1.77;;;;;;;;;;5115402;28;20530;-57
2021/08/07 09:20:14;;;;;;;3.53;1.20;;;;;;;;;;5099158;28;20552;-59
2021/08/07 09:22:44;;;;;;;4.30;1.80;;;;;;;;;;5111013;28;20481;-57
2021/08/07 09:25:23;;;;;;;4.80;1.83;;;;;;;;;;5098245;28;20459;-59
2021/08/07 09:27:51;;;;;;;3.30;1.13;;;;;;;;;;5105508;28;20461;-55
2021/08/07 09:30:35;;;;;;;4.50;1.33;;;;;;;;;;5111877;28;20455;-59
2021/08/07 09:33:05;;;;;;;3.60;1.30;;;;;;;;;;5093176;28;20662;-54
2021/08/07 09:35:44;;;;;;;11.17;10.07;;;;;;;;;;5093466;28;20512;-57
2021/08/07 09:41:03;;;;;;;5.83;2.80;;;;;;;;;;5101168;28;20452;-51
2021/08/07 09:43:33;;;;;;;6.23;1.70;;;;;;;;;;5108268;28;20505;-54
2021/08/07 09:46:06;;;;;;;5.80;2.10;;;;;;;;;;5113266;28;20419;-54
2021/08/07 09:48:35;;;;;;;6.43;4.40;;;;;;;;;;5113047;28;20511;-54
2021/08/07 09:51:14;;;;;;;10.67;5.60;;;;;;;;;;5116392;28;20462;-57
2021/08/07 09:53:50;;;;;;;4.40;1.70;;;;;;;;;;5117316;28;20461;-56
2021/08/07 09:56:17;;;;;;;7.00;2.10;;;;;;;;;;5120881;28;20451;-58
2021/08/07 09:58:47;;;;;;;7.50;2.30;;;;;;;;;;5093202;28;20452;-55
2021/08/07 10:01:35;;;;;;;4.43;1.67;;;;;;;;;;5097239;28;20435;-56
2021/08/07 10:04:05;;;;;;;5.60;2.07;;;;;;;;;;5112279;28;20552;-53
2021/08/07 10:06:48;;;;;;;5.13;1.40;;;;;;;;;;5099974;28;20650;-55
2021/08/07 10:09:16;;;;;;;4.80;1.40;;;;;;;;;;5097605;28;20502;-58
2021/08/07 10:12:03;;;;;;;7.37;1.73;;;;;;;;;;5111040;28;20527;-57
2021/08/07 10:14:35;;;;;;;6.67;1.87;;;;;;;;;;5097297;28;20532;-57
2021/08/07 10:17:09;;;;;;;5.40;2.33;;;;;;;;;;5103801;28;20493;-53
2021/08/07 10:19:37;;;;;;;5.37;1.60;;;;;;;;;;5110282;28;20496;-52
2021/08/07 10:22:06;;;;;;;3.83;2.10;;;;;;;;;;5111088;28;20471;-56
2021/08/07 10:24:37;;;;;;;5.70;1.90;;;;;;;;;;5109741;28;20491;-53
2021/08/07 10:27:04;;;;;;;4.37;1.70;;;;;;;;;;5110211;28;20420;-55
2021/08/07 10:29:40;;;;;;;4.63;1.20;;;;;;;;;;5100629;28;20479;-54
2021/08/07 10:32:11;;;;;;;5.83;1.57;;;;;;;;;;5104759;28;20463;-51
2021/08/07 10:34:39;;;;;;;4.47;1.50;;;;;;;;;;5109287;28;20481;-56
2021/08/07 10:37:09;;;;;;;3.73;1.30;;;;;;;;;;5110954;28;20467;-56
2021/08/07 10:39:36;;;;;;;4.97;1.63;;;;;;;;;;5111294;28;20525;-55
2021/08/07 10:42:14;;;;;;;4.50;1.50;;;;;;;;;;5101550;28;20555;-54
2021/08/07 10:44:44;;;;;;;6.17;2.00;;;;;;;;;;5098783;28;20559;-56
2021/08/07 10:47:15;;;;;;;5.83;1.90;;;;;;;;;;5100779;28;20459;-55
2021/08/07 10:49:45;;;;;;;9.33;2.13;;;;;;;;;;5103686;28;20476;-57
2021/08/07 10:52:33;;;;;;;5.03;1.73;;;;;;;;;;5102507;28;20515;-58
2021/08/07 10:55:00;;;;;;;4.27;1.40;;;;;;;;;;5085180;28;20470;-57
2021/08/07 10:57:35;;;;;;;3.87;1.27;;;;;;;;;;5091779;28;20458;-57
2021/08/07 11:00:07;;;;;;;3.50;1.73;;;;;;;;;;5090563;28;20463;-56
2021/08/07 11:03:10;;;;;;;5.93;2.37;;;;;;;;;;5088028;28;20443;-57
2021/08/07 11:05:51;;;;;;;7.23;2.43;;;;;;;;;;5099323;28;20470;-57
2021/08/07 11:08:19;;;;;;;5.80;1.60;;;;;;;;;;5096523;28;20451;-56
2021/08/07 11:10:47;;;;;;;7.13;1.40;;;;;;;;;;5100372;28;20455;-58
2021/08/07 11:13:41;;;;;;;6.43;1.40;;;;;;;;;;5120965;28;20529;-54
2021/08/07 11:16:22;;;;;;;3.03;1.60;;;;;;;;;;5094548;28;20547;-56
2021/08/07 11:18:51;;;;;;;3.50;1.50;;;;;;;;;;5106290;28;20455;-55
2021/08/07 11:21:39;;;;;;;3.00;1.20;;;;;;;;;;5108873;28;20447;-58
2021/08/07 11:24:09;;;;;;;5.27;1.53;;;;;;;;;;5109363;28;20555;-56
2021/08/07 11:27:04;;;;;;;3.13;1.00;;;;;;;;;;5109691;28;20463;-56
2021/08/07 11:29:32;;;;;;;2.97;1.10;;;;;;;;;;5086800;28;20445;-57
2021/08/07 11:32:26;;;;;;;3.27;1.43;;;;;;;;;;5086463;28;20457;-53
2021/08/07 11:34:53;;;;;;;3.17;1.40;;;;;;;;;;5090765;28;20649;-53
2021/08/07 11:37:36;;;;;;;4.93;1.30;;;;;;;;;;5089939;28;20460;-55
2021/08/07 11:40:11;;;;;;;5.07;1.20;;;;;;;;;;5092133;28;20464;-57
2021/08/07 11:42:40;;;;;;;4.20;1.70;;;;;;;;;;5090396;28;20459;-57
2021/08/07 11:45:10;;;;;;;8.83;1.97;;;;;;;;;;5104841;28;20481;-58
2021/08/07 11:47:53;;;;;;;6.93;1.67;;;;;;;;;;5111365;28;20419;-56
2021/08/07 11:50:21;;;;;;;4.17;2.00;;;;;;;;;;5097588;28;20459;-55
2021/08/07 11:52:50;;;;;;;4.00;1.73;;;;;;;;;;5097169;28;20447;-55
2021/08/07 11:55:50;;;;;;;5.20;1.30;;;;;;;;;;5105573;28;20448;-56
2021/08/07 11:58:17;;;;;;;5.00;1.40;;;;;;;;;;5094642;28;20479;-55
2021/08/07 12:01:10;;;;;;;4.83;1.20;;;;;;;;;;5096332;28;20504;-56
2021/08/07 12:03:43;;;;;;;5.53;1.60;;;;;;;;;;5112834;28;20462;-58
2021/08/07 12:06:15;;;;;;;3.60;1.20;;;;;;;;;;5086378;28;20463;-58
2021/08/07 12:08:44;;;;;;;4.53;1.50;;;;;;;;;;5103950;28;20491;-59
2021/08/07 12:14:22;;;;;;;3.13;1.23;;;;;;;;;;5116914;28;20453;-53
2021/08/07 12:16:49;;;;;;;4.07;2.00;;;;;;;;;;5115722;28;20705;-55
2021/08/07 12:19:17;;;;;;;3.90;1.87;;;;;;;;;;5115142;28;20481;-58
2021/08/07 12:21:52;;;;;;;3.27;1.63;;;;;;;;;;5115885;28;20470;-55
2021/08/07 12:24:24;;;;;;;4.63;2.80;;;;;;;;;;5105201;28;20479;-60
2021/08/07 12:26:55;;;;;;;7.43;3.40;;;;;;;;;;5091277;28;20451;-56
2021/08/07 12:29:32;;;;;;;7.20;2.87;;;;;;;;;;5093250;28;20451;-58
2021/08/07 12:32:00;;;;;;;4.97;1.90;;;;;;;;;;5091793;28;20463;-55
2021/08/07 12:34:29;;;;;;;9.80;3.83;;;;;;;;;;5092621;28;20470;-58
2021/08/07 12:37:01;;;;;;;4.67;2.30;;;;;;;;;;5091988;28;20444;-59
2021/08/07 12:39:29;;;;;;;3.07;1.13;;;;;;;;;;5093124;28;20437;-57
2021/08/07 12:42:16;;;;;;;4.37;2.03;;;;;;;;;;5107097;28;20443;-55
2021/08/07 12:44:46;;;;;;;4.67;1.67;;;;;;;;;;5112695;28;20550;-55
2021/08/07 12:47:20;;;;;;;3.60;1.50;;;;;;;;;;5115190;28;20463;-52
2021/08/07 12:49:53;;;;;;;4.20;1.47;;;;;;;;;;5115611;28;20459;-57
2021/08/07 12:52:23;;;;;;;3.80;1.40;;;;;;;;;;5115356;28;20439;-60
2021/08/07 12:55:08;;;;;;;4.30;1.50;;;;;;;;;;5116039;28;20545;-56
2021/08/07 12:57:38;;;;;;;19.30;16.53;;;;;;;;;;5112428;28;20525;-59
2021/08/07 13:00:18;;;;;;;5.90;1.83;;;;;;;;;;5114298;28;20530;-57
2021/08/07 13:03:18;;;;;;;2.73;1.23;;;;;;;;;;5094700;28;20511;-57
2021/08/07 13:05:49;;;;;;;6.10;1.97;;;;;;;;;;5095015;28;20485;-57
2021/08/07 13:08:32;;;;;;;3.53;1.70;;;;;;;;;;5095288;28;20488;-58
2021/08/07 13:14:00;;;;;;;4.57;2.70;;;;;;;;;;5095208;28;20464;-55
2021/08/07 13:16:44;;;;;;;3.90;2.60;;;;;;;;;;5094514;28;20455;-58
2021/08/07 13:19:34;;;;;;;4.33;2.47;;;;;;;;;;5101958;28;20463;-58
2021/08/07 13:22:19;;;;;;;4.17;1.70;;;;;;;;;;5112785;28;20530;-52
2021/08/07 13:24:58;;;;;;;6.97;2.00;;;;;;;;;;5110938;28;20507;-53
2021/08/07 13:27:39;;;;;;;6.57;2.57;;;;;;;;;;5113822;28;20526;-56
2021/08/07 13:30:10;;;;;;;4.77;2.43;;;;;;;;;;5113465;28;20463;-56
2021/08/07 13:32:38;;;;;;;3.63;1.40;;;;;;;;;;5113167;28;20508;-57
2021/08/07 13:35:09;;;;;;;3.53;1.60;;;;;;;;;;5132638;28;20445;-58
2021/08/07 13:37:46;;;;;;;5.30;2.57;;;;;;;;;;5134714;28;20442;-56
2021/08/07 13:40:28;;;;;;;10.47;6.97;;;;;;;;;;5134976;28;20481;-60
2021/08/07 13:43:00;;;;;;;3.30;2.13;;;;;;;;;;5134633;28;20533;-58
2021/08/07 13:45:50;;;;;;;5.63;2.33;;;;;;;;;;5114564;28;20483;-59
2021/08/07 13:48:29;;;;;;;4.37;2.03;;;;;;;;;;5109630;28;20511;-55
2021/08/07 13:50:57;;;;;;;4.20;1.73;;;;;;;;;;5112577;28;20462;-54
2021/08/07 13:53:34;;;;;;;2.90;1.50;;;;;;;;;;5111897;28;20440;-56
2021/08/07 14:01:48;;;;;;;3.50;1.60;;;;;;;;;;5108003;28;20459;-53
2021/08/07 14:04:21;;;;;;;3.90;1.57;;;;;;;;;;5112946;28;20485;-55
2021/08/07 14:06:49;;;;;;;5.17;2.23;;;;;;;;;;5099236;28;20460;-54
2021/08/07 14:09:17;;;;;;;5.17;2.30;;;;;;;;;;5092738;28;20478;-58
2021/08/07 14:11:56;;;;;;;10.87;8.60;;;;;;;;;;5091421;28;20463;-56
2021/08/07 14:14:25;;;;;;;7.17;3.43;;;;;;;;;;5089470;28;20455;-58
2021/08/07 14:17:21;;;;;;;6.73;1.50;;;;;;;;;;5092397;28;20476;-57
2021/08/07 14:19:54;;;;;;;5.33;2.10;;;;;;;;;;5093422;28;20742;-55
2021/08/07 14:22:32;;;;;;;5.07;3.33;;;;;;;;;;5111366;28;20497;-59
2021/08/07 14:25:05;;;;;;;4.40;2.57;;;;;;;;;;5112441;28;20469;-56
2021/08/07 14:27:32;;;;;;;7.80;3.07;;;;;;;;;;5111482;28;20459;-56
2021/08/07 14:29:59;;;;;;;4.10;1.90;;;;;;;;;;5110427;28;20447;-55
2021/08/07 14:32:28;;;;;;;3.67;1.67;;;;;;;;;;5110218;28;20536;-56
2021/08/07 14:34:57;;;;;;;4.10;1.50;;;;;;;;;;5101618;28;20454;-58
2021/08/07 14:37:30;;;;;;;2.87;1.07;;;;;;;;;;5109842;28;20496;-57
2021/08/07 14:40:02;;;;;;;4.27;1.80;;;;;;;;;;5109818;28;20502;-56
2021/08/07 14:42:30;;;;;;;9.30;2.53;;;;;;;;;;5111707;28;20474;-52
2021/08/07 14:44:57;;;;;;;6.70;2.07;;;;;;;;;;5110520;28;20736;-56
2021/08/07 14:47:30;;;;;;;8.27;3.13;;;;;;;;;;5100953;28;20483;-57
2021/08/07 14:49:59;;;;;;;5.77;1.30;;;;;;;;;;5105740;28;20503;-57
2021/08/07 14:52:27;;;;;;;4.40;2.43;;;;;;;;;;5111201;28;20497;-55
2021/08/07 14:54:55;;;;;;;3.60;1.27;;;;;;;;;;5108828;28;20695;-57
2021/08/07 14:57:23;;;;;;;4.80;2.73;;;;;;;;;;5110024;28;20459;-57
2021/08/07 15:00:12;;;;;;;5.63;3.57;;;;;;;;;;5111026;28;20435;-62
2021/08/07 15:02:41;;;;;;;7.03;3.27;;;;;;;;;;5090478;28;20452;-53
2021/08/07 15:05:10;;;;;;;5.40;2.00;;;;;;;;;;5093495;28;20551;-57
2021/08/07 15:07:38;;;;;;;6.60;1.50;;;;;;;;;;5111269;28;20459;-53
2021/08/07 15:10:05;;;;;;;4.23;2.00;;;;;;;;;;5109944;28;20455;-55
2021/08/07 15:12:34;;;;;;;9.60;7.40;;;;;;;;;;5111310;28;20463;-56
2021/08/07 15:15:02;;;;;;;8.67;4.40;;;;;;;;;;5111442;28;20478;-57
2021/08/07 15:17:36;;;;;;;3.97;1.47;;;;;;;;;;5111017;28;20455;-56
2021/08/07 15:20:14;;;;;;;4.57;1.63;;;;;;;;;;5108737;28;20455;-55
2021/08/07 15:22:41;;;;;;;3.20;1.13;;;;;;;;;;5102356;28;20542;-59
2021/08/07 15:25:17;;;;;;;6.30;1.47;;;;;;;;;;5111209;28;20519;-57
2021/08/07 15:27:45;;;;;;;4.00;1.73;;;;;;;;;;5109214;28;20451;-57
2021/08/07 15:30:22;;;;;;;4.23;1.63;;;;;;;;;;5109495;28;20444;-58
2021/08/07 15:33:05;;;;;;;4.33;1.77;;;;;;;;;;5108334;28;20442;-53